sensor_id;sensor_type;location;lat;lon;timestamp;P1;durP1;ratioP1;P2;durP2;ratioP2
60014;SDS011;45867;52.480;6.056;2022-11-20T00:00:11;31.45;;;16.02;;
60014;SDS011;45867;52.480;6.056;2022-11-20T00:02:42;38.88;;;17.27;;
60014;SDS011;45867;52.480;6.056;2022-11-20T00:05:08;38.70;;;17.45;;
60014;SDS011;45867;52.480;6.056;2022-11-20T00:07:36;42.47;;;17.35;;
60014;SDS011;45867;52.480;6.056;2022-11-20T00:10:04;43.75;;;17.67;;
60014;SDS011;45867;52.480;6.056;2022-11-20T00:12:30;34.38;;;17.40;;
60014;SDS011;45867;52.480;6.056;2022-11-20T00:14:56;39.28;;;17.52;;
60014;SDS011;45867;52.480;6.056;2022-11-20T00:17:22;39.97;;;16.48;;
60014;SDS011;45867;52.480;6.056;2022-11-20T00:19:48;39.75;;;18.52;;
60014;SDS011;45867;52.480;6.056;2022-11-20T00:22:14;36.38;;;16.92;;
60014;SDS011;45867;52.480;6.056;2022-11-20T00:24:39;39.92;;;18.33;;
60014;SDS011;45867;52.480;6.056;2022-11-20T00:27:05;48.67;;;20.08;;
60014;SDS011;45867;52.480;6.056;2022-11-20T00:29:30;41.85;;;20.40;;
60014;SDS011;45867;52.480;6.056;2022-11-20T00:31:56;35.45;;;17.67;;
60014;SDS011;45867;52.480;6.056;2022-11-20T00:34:21;37.80;;;16.33;;
60014;SDS011;45867;52.480;6.056;2022-11-20T00:36:47;45.85;;;17.50;;
60014;SDS011;45867;52.480;6.056;2022-11-20T00:39:13;38.22;;;18.13;;
60014;SDS011;45867;52.480;6.056;2022-11-20T00:41:38;40.60;;;17.40;;
60014;SDS011;45867;52.480;6.056;2022-11-20T00:44:03;46.50;;;19.02;;
60014;SDS011;45867;52.480;6.056;2022-11-20T00:46:29;38.50;;;18.77;;
60014;SDS011;45867;52.480;6.056;2022-11-20T00:48:55;43.63;;;18.15;;
60014;SDS011;45867;52.480;6.056;2022-11-20T00:51:22;37.45;;;17.23;;
60014;SDS011;45867;52.480;6.056;2022-11-20T00:53:50;37.28;;;16.33;;
60014;SDS011;45867;52.480;6.056;2022-11-20T00:56:17;40.60;;;16.98;;
60014;SDS011;45867;52.480;6.056;2022-11-20T00:58:46;38.88;;;17.73;;
60014;SDS011;45867;52.480;6.056;2022-11-20T01:01:14;44.78;;;16.98;;
60014;SDS011;45867;52.480;6.056;2022-11-20T01:03:49;40.90;;;17.55;;
60014;SDS011;45867;52.480;6.056;2022-11-20T01:06:18;36.78;;;16.13;;
60014;SDS011;45867;52.480;6.056;2022-11-20T01:08:52;43.35;;;17.92;;
60014;SDS011;45867;52.480;6.056;2022-11-20T01:11:20;38.90;;;15.98;;
60014;SDS011;45867;52.480;6.056;2022-11-20T01:13:51;34.42;;;15.73;;
60014;SDS011;45867;52.480;6.056;2022-11-20T01:16:28;36.17;;;15.98;;
60014;SDS011;45867;52.480;6.056;2022-11-20T01:18:57;33.88;;;15.85;;
60014;SDS011;45867;52.480;6.056;2022-11-20T01:21:29;45.58;;;17.08;;
60014;SDS011;45867;52.480;6.056;2022-11-20T01:23:56;34.35;;;16.63;;
60014;SDS011;45867;52.480;6.056;2022-11-20T01:26:23;39.67;;;17.23;;
60014;SDS011;45867;52.480;6.056;2022-11-20T01:28:54;48.17;;;16.52;;
60014;SDS011;45867;52.480;6.056;2022-11-20T01:31:23;32.90;;;16.25;;
60014;SDS011;45867;52.480;6.056;2022-11-20T01:33:56;38.53;;;16.33;;
60014;SDS011;45867;52.480;6.056;2022-11-20T01:36:25;38.08;;;15.13;;
60014;SDS011;45867;52.480;6.056;2022-11-20T01:38:52;44.90;;;15.93;;
60014;SDS011;45867;52.480;6.056;2022-11-20T01:41:19;42.42;;;14.85;;
60014;SDS011;45867;52.480;6.056;2022-11-20T01:44:04;35.05;;;14.60;;
60014;SDS011;45867;52.480;6.056;2022-11-20T01:46:31;37.58;;;14.10;;
60014;SDS011;45867;52.480;6.056;2022-11-20T01:49:08;31.67;;;13.52;;
60014;SDS011;45867;52.480;6.056;2022-11-20T01:51:46;38.72;;;14.85;;
60014;SDS011;45867;52.480;6.056;2022-11-20T01:56:44;27.52;;;12.30;;
60014;SDS011;45867;52.480;6.056;2022-11-20T01:59:13;27.77;;;12.30;;
60014;SDS011;45867;52.480;6.056;2022-11-20T02:01:42;29.45;;;12.80;;
60014;SDS011;45867;52.480;6.056;2022-11-20T02:04:08;29.88;;;12.60;;
60014;SDS011;45867;52.480;6.056;2022-11-20T02:06:38;33.50;;;13.55;;
60014;SDS011;45867;52.480;6.056;2022-11-20T02:09:09;31.52;;;14.07;;
60014;SDS011;45867;52.480;6.056;2022-11-20T02:11:38;29.02;;;12.98;;
60014;SDS011;45867;52.480;6.056;2022-11-20T02:14:03;30.60;;;13.52;;
60014;SDS011;45867;52.480;6.056;2022-11-20T02:16:39;31.98;;;13.23;;
60014;SDS011;45867;52.480;6.056;2022-11-20T02:19:14;26.95;;;12.93;;
60014;SDS011;45867;52.480;6.056;2022-11-20T02:22:10;40.70;;;13.27;;
60014;SDS011;45867;52.480;6.056;2022-11-20T02:24:38;30.58;;;12.98;;
60014;SDS011;45867;52.480;6.056;2022-11-20T02:27:06;35.75;;;13.60;;
60014;SDS011;45867;52.480;6.056;2022-11-20T02:29:39;25.02;;;12.85;;
60014;SDS011;45867;52.480;6.056;2022-11-20T02:32:25;31.08;;;13.90;;
60014;SDS011;45867;52.480;6.056;2022-11-20T02:34:53;35.70;;;15.52;;
60014;SDS011;45867;52.480;6.056;2022-11-20T02:37:18;35.03;;;13.60;;
60014;SDS011;45867;52.480;6.056;2022-11-20T02:39:46;37.38;;;13.90;;
60014;SDS011;45867;52.480;6.056;2022-11-20T02:42:13;33.63;;;14.15;;
60014;SDS011;45867;52.480;6.056;2022-11-20T02:44:39;27.35;;;13.32;;
60014;SDS011;45867;52.480;6.056;2022-11-20T02:47:05;29.35;;;13.88;;
60014;SDS011;45867;52.480;6.056;2022-11-20T02:49:30;27.92;;;13.93;;
60014;SDS011;45867;52.480;6.056;2022-11-20T02:51:56;28.67;;;13.57;;
60014;SDS011;45867;52.480;6.056;2022-11-20T02:54:21;35.35;;;13.05;;
60014;SDS011;45867;52.480;6.056;2022-11-20T02:57:06;27.92;;;13.48;;
60014;SDS011;45867;52.480;6.056;2022-11-20T02:59:31;31.85;;;13.65;;
60014;SDS011;45867;52.480;6.056;2022-11-20T03:01:56;27.05;;;12.50;;
60014;SDS011;45867;52.480;6.056;2022-11-20T03:04:22;30.45;;;13.00;;
60014;SDS011;45867;52.480;6.056;2022-11-20T03:06:47;31.65;;;13.45;;
60014;SDS011;45867;52.480;6.056;2022-11-20T03:09:13;29.88;;;12.98;;
60014;SDS011;45867;52.480;6.056;2022-11-20T03:11:38;28.77;;;12.20;;
60014;SDS011;45867;52.480;6.056;2022-11-20T03:14:04;28.50;;;12.60;;
60014;SDS011;45867;52.480;6.056;2022-11-20T03:16:30;26.80;;;12.30;;
60014;SDS011;45867;52.480;6.056;2022-11-20T03:18:56;25.50;;;12.70;;
60014;SDS011;45867;52.480;6.056;2022-11-20T03:21:22;29.17;;;12.70;;
60014;SDS011;45867;52.480;6.056;2022-11-20T03:23:47;28.35;;;11.30;;
60014;SDS011;45867;52.480;6.056;2022-11-20T03:26:17;27.10;;;11.55;;
60014;SDS011;45867;52.480;6.056;2022-11-20T03:28:47;29.23;;;12.07;;
60014;SDS011;45867;52.480;6.056;2022-11-20T03:31:18;28.00;;;11.63;;
60014;SDS011;45867;52.480;6.056;2022-11-20T03:33:45;25.13;;;12.35;;
60014;SDS011;45867;52.480;6.056;2022-11-20T03:36:11;25.67;;;12.43;;
60014;SDS011;45867;52.480;6.056;2022-11-20T03:38:38;26.48;;;11.43;;
60014;SDS011;45867;52.480;6.056;2022-11-20T03:41:05;36.83;;;11.65;;
60014;SDS011;45867;52.480;6.056;2022-11-20T03:43:34;22.92;;;11.27;;
60014;SDS011;45867;52.480;6.056;2022-11-20T03:45:59;30.90;;;13.80;;
60014;SDS011;45867;52.480;6.056;2022-11-20T03:48:25;30.45;;;13.57;;
60014;SDS011;45867;52.480;6.056;2022-11-20T03:50:52;26.50;;;12.77;;
60014;SDS011;45867;52.480;6.056;2022-11-20T03:53:18;28.65;;;12.68;;
60014;SDS011;45867;52.480;6.056;2022-11-20T03:55:45;25.98;;;12.23;;
60014;SDS011;45867;52.480;6.056;2022-11-20T03:58:20;24.73;;;11.93;;
60014;SDS011;45867;52.480;6.056;2022-11-20T04:00:45;27.77;;;12.65;;
60014;SDS011;45867;52.480;6.056;2022-11-20T04:03:10;30.77;;;13.65;;
60014;SDS011;45867;52.480;6.056;2022-11-20T04:05:36;32.88;;;13.90;;
60014;SDS011;45867;52.480;6.056;2022-11-20T04:08:01;24.17;;;11.52;;
60014;SDS011;45867;52.480;6.056;2022-11-20T04:10:27;29.55;;;12.18;;
60014;SDS011;45867;52.480;6.056;2022-11-20T04:12:52;25.83;;;12.40;;
60014;SDS011;45867;52.480;6.056;2022-11-20T04:15:17;29.65;;;11.98;;
60014;SDS011;45867;52.480;6.056;2022-11-20T04:17:43;30.85;;;11.63;;
60014;SDS011;45867;52.480;6.056;2022-11-20T04:20:08;31.05;;;12.77;;
60014;SDS011;45867;52.480;6.056;2022-11-20T04:22:34;29.90;;;12.05;;
60014;SDS011;45867;52.480;6.056;2022-11-20T04:24:59;26.17;;;12.70;;
60014;SDS011;45867;52.480;6.056;2022-11-20T04:27:24;30.38;;;11.98;;
60014;SDS011;45867;52.480;6.056;2022-11-20T04:29:50;25.83;;;11.57;;
60014;SDS011;45867;52.480;6.056;2022-11-20T04:32:15;27.27;;;12.07;;
60014;SDS011;45867;52.480;6.056;2022-11-20T04:34:40;20.70;;;10.68;;
60014;SDS011;45867;52.480;6.056;2022-11-20T04:37:06;22.92;;;10.82;;
60014;SDS011;45867;52.480;6.056;2022-11-20T04:39:31;26.58;;;11.15;;
60014;SDS011;45867;52.480;6.056;2022-11-20T04:41:56;25.40;;;11.38;;
60014;SDS011;45867;52.480;6.056;2022-11-20T04:44:40;24.80;;;10.75;;
60014;SDS011;45867;52.480;6.056;2022-11-20T04:47:06;26.77;;;11.32;;
60014;SDS011;45867;52.480;6.056;2022-11-20T04:49:31;25.20;;;10.10;;
60014;SDS011;45867;52.480;6.056;2022-11-20T04:51:57;24.83;;;11.55;;
60014;SDS011;45867;52.480;6.056;2022-11-20T04:54:23;23.63;;;11.27;;
60014;SDS011;45867;52.480;6.056;2022-11-20T04:56:55;24.38;;;10.40;;
60014;SDS011;45867;52.480;6.056;2022-11-20T04:59:20;20.15;;;10.18;;
60014;SDS011;45867;52.480;6.056;2022-11-20T05:01:46;26.23;;;11.40;;
60014;SDS011;45867;52.480;6.056;2022-11-20T05:04:11;24.45;;;10.98;;
60014;SDS011;45867;52.480;6.056;2022-11-20T05:06:37;23.90;;;11.55;;
60014;SDS011;45867;52.480;6.056;2022-11-20T05:09:02;25.35;;;10.95;;
60014;SDS011;45867;52.480;6.056;2022-11-20T05:11:27;30.90;;;11.20;;
60014;SDS011;45867;52.480;6.056;2022-11-20T05:13:57;21.52;;;10.48;;
60014;SDS011;45867;52.480;6.056;2022-11-20T05:16:23;24.30;;;10.98;;
60014;SDS011;45867;52.480;6.056;2022-11-20T05:18:50;27.90;;;10.63;;
60014;SDS011;45867;52.480;6.056;2022-11-20T05:21:17;25.70;;;11.07;;
60014;SDS011;45867;52.480;6.056;2022-11-20T05:23:43;23.02;;;10.88;;
60014;SDS011;45867;52.480;6.056;2022-11-20T05:26:13;26.20;;;10.75;;
60014;SDS011;45867;52.480;6.056;2022-11-20T05:28:43;21.15;;;10.98;;
60014;SDS011;45867;52.480;6.056;2022-11-20T05:31:12;21.65;;;10.68;;
60014;SDS011;45867;52.480;6.056;2022-11-20T05:33:40;25.02;;;10.38;;
60014;SDS011;45867;52.480;6.056;2022-11-20T05:36:06;21.23;;;10.30;;
60014;SDS011;45867;52.480;6.056;2022-11-20T05:38:32;24.70;;;10.68;;
60014;SDS011;45867;52.480;6.056;2022-11-20T05:43:34;23.25;;;10.60;;
60014;SDS011;45867;52.480;6.056;2022-11-20T05:46:00;28.23;;;10.77;;
60014;SDS011;45867;52.480;6.056;2022-11-20T05:48:25;22.20;;;10.43;;
60014;SDS011;45867;52.480;6.056;2022-11-20T05:50:51;21.92;;;9.88;;
60014;SDS011;45867;52.480;6.056;2022-11-20T05:53:16;25.90;;;11.43;;
60014;SDS011;45867;52.480;6.056;2022-11-20T05:55:42;23.35;;;11.27;;
60014;SDS011;45867;52.480;6.056;2022-11-20T05:58:07;25.67;;;11.80;;
60014;SDS011;45867;52.480;6.056;2022-11-20T06:00:32;21.20;;;10.88;;
60014;SDS011;45867;52.480;6.056;2022-11-20T06:02:58;23.63;;;11.60;;
60014;SDS011;45867;52.480;6.056;2022-11-20T06:05:23;21.50;;;11.10;;
60014;SDS011;45867;52.480;6.056;2022-11-20T06:07:49;21.05;;;10.55;;
60014;SDS011;45867;52.480;6.056;2022-11-20T06:10:14;24.73;;;11.27;;
60014;SDS011;45867;52.480;6.056;2022-11-20T06:12:39;21.98;;;9.98;;
60014;SDS011;45867;52.480;6.056;2022-11-20T06:15:05;21.60;;;10.88;;
60014;SDS011;45867;52.480;6.056;2022-11-20T06:17:30;22.55;;;10.38;;
60014;SDS011;45867;52.480;6.056;2022-11-20T06:19:56;21.15;;;10.48;;
60014;SDS011;45867;52.480;6.056;2022-11-20T06:22:21;20.80;;;9.98;;
60014;SDS011;45867;52.480;6.056;2022-11-20T06:24:50;25.35;;;9.95;;
60014;SDS011;45867;52.480;6.056;2022-11-20T06:27:15;21.20;;;10.95;;
60014;SDS011;45867;52.480;6.056;2022-11-20T06:29:41;27.92;;;10.88;;
60014;SDS011;45867;52.480;6.056;2022-11-20T06:32:06;25.75;;;12.32;;
60014;SDS011;45867;52.480;6.056;2022-11-20T06:34:31;27.15;;;12.75;;
60014;SDS011;45867;52.480;6.056;2022-11-20T06:36:57;27.92;;;12.50;;
60014;SDS011;45867;52.480;6.056;2022-11-20T06:39:22;27.63;;;11.73;;
60014;SDS011;45867;52.480;6.056;2022-11-20T06:41:51;27.05;;;10.68;;
60014;SDS011;45867;52.480;6.056;2022-11-20T06:44:16;22.85;;;11.50;;
60014;SDS011;45867;52.480;6.056;2022-11-20T06:46:41;24.98;;;11.70;;
60014;SDS011;45867;52.480;6.056;2022-11-20T06:49:07;23.33;;;12.05;;
60014;SDS011;45867;52.480;6.056;2022-11-20T06:51:32;22.45;;;10.45;;
60014;SDS011;45867;52.480;6.056;2022-11-20T06:53:57;29.13;;;11.02;;
60014;SDS011;45867;52.480;6.056;2022-11-20T06:56:23;25.60;;;9.85;;
60014;SDS011;45867;52.480;6.056;2022-11-20T06:58:49;23.75;;;11.02;;
60014;SDS011;45867;52.480;6.056;2022-11-20T07:01:15;24.85;;;11.23;;
60014;SDS011;45867;52.480;6.056;2022-11-20T07:03:43;21.17;;;9.93;;
60014;SDS011;45867;52.480;6.056;2022-11-20T07:06:08;25.63;;;9.98;;
60014;SDS011;45867;52.480;6.056;2022-11-20T07:08:34;20.58;;;10.00;;
60014;SDS011;45867;52.480;6.056;2022-11-20T07:11:00;23.10;;;10.27;;
60014;SDS011;45867;52.480;6.056;2022-11-20T07:13:27;29.17;;;10.73;;
60014;SDS011;45867;52.480;6.056;2022-11-20T07:16:00;20.45;;;10.57;;
60014;SDS011;45867;52.480;6.056;2022-11-20T07:18:27;23.58;;;10.40;;
60014;SDS011;45867;52.480;6.056;2022-11-20T07:20:52;23.77;;;10.52;;
60014;SDS011;45867;52.480;6.056;2022-11-20T07:23:18;23.60;;;11.35;;
60014;SDS011;45867;52.480;6.056;2022-11-20T07:25:43;27.48;;;12.23;;
60014;SDS011;45867;52.480;6.056;2022-11-20T07:28:09;29.73;;;12.73;;
60014;SDS011;45867;52.480;6.056;2022-11-20T07:30:35;25.95;;;11.60;;
60014;SDS011;45867;52.480;6.056;2022-11-20T07:33:01;21.65;;;10.48;;
60014;SDS011;45867;52.480;6.056;2022-11-20T07:35:26;24.90;;;12.60;;
60014;SDS011;45867;52.480;6.056;2022-11-20T07:37:52;25.67;;;11.07;;
60014;SDS011;45867;52.480;6.056;2022-11-20T07:40:18;27.60;;;13.13;;
60014;SDS011;45867;52.480;6.056;2022-11-20T07:42:48;35.47;;;15.13;;
60014;SDS011;45867;52.480;6.056;2022-11-20T07:45:20;37.58;;;14.00;;
60014;SDS011;45867;52.480;6.056;2022-11-20T07:47:47;37.45;;;15.82;;
60014;SDS011;45867;52.480;6.056;2022-11-20T07:50:12;34.00;;;15.32;;
60014;SDS011;45867;52.480;6.056;2022-11-20T07:52:39;36.40;;;15.60;;
60014;SDS011;45867;52.480;6.056;2022-11-20T07:55:05;31.73;;;14.95;;
60014;SDS011;45867;52.480;6.056;2022-11-20T07:57:32;29.02;;;13.63;;
60014;SDS011;45867;52.480;6.056;2022-11-20T07:59:58;22.45;;;12.10;;
60014;SDS011;45867;52.480;6.056;2022-11-20T08:02:23;24.88;;;11.90;;
60014;SDS011;45867;52.480;6.056;2022-11-20T08:04:48;33.95;;;14.68;;
60014;SDS011;45867;52.480;6.056;2022-11-20T08:07:14;44.05;;;17.70;;
60014;SDS011;45867;52.480;6.056;2022-11-20T08:09:39;44.78;;;17.42;;
60014;SDS011;45867;52.480;6.056;2022-11-20T08:12:05;40.40;;;17.63;;
60014;SDS011;45867;52.480;6.056;2022-11-20T08:14:49;26.08;;;12.45;;
60014;SDS011;45867;52.480;6.056;2022-11-20T08:17:14;32.20;;;15.20;;
60014;SDS011;45867;52.480;6.056;2022-11-20T08:19:40;26.98;;;12.93;;
60014;SDS011;45867;52.480;6.056;2022-11-20T08:22:05;25.40;;;13.30;;
60014;SDS011;45867;52.480;6.056;2022-11-20T08:24:31;29.73;;;14.50;;
60014;SDS011;45867;52.480;6.056;2022-11-20T08:26:59;33.88;;;14.60;;
60014;SDS011;45867;52.480;6.056;2022-11-20T08:29:28;32.08;;;14.48;;
60014;SDS011;45867;52.480;6.056;2022-11-20T08:31:53;28.33;;;14.27;;
60014;SDS011;45867;52.480;6.056;2022-11-20T08:34:21;28.67;;;13.13;;
60014;SDS011;45867;52.480;6.056;2022-11-20T08:36:47;32.20;;;14.60;;
60014;SDS011;45867;52.480;6.056;2022-11-20T08:39:12;33.28;;;14.25;;
60014;SDS011;45867;52.480;6.056;2022-11-20T08:41:38;35.90;;;14.75;;
60014;SDS011;45867;52.480;6.056;2022-11-20T08:44:04;34.47;;;14.73;;
60014;SDS011;45867;52.480;6.056;2022-11-20T08:46:36;32.22;;;14.98;;
60014;SDS011;45867;52.480;6.056;2022-11-20T08:49:03;33.65;;;14.63;;
60014;SDS011;45867;52.480;6.056;2022-11-20T08:51:29;29.27;;;13.77;;
60014;SDS011;45867;52.480;6.056;2022-11-20T08:53:55;30.90;;;14.23;;
60014;SDS011;45867;52.480;6.056;2022-11-20T08:56:20;47.08;;;20.52;;
60014;SDS011;45867;52.480;6.056;2022-11-20T08:58:45;36.13;;;15.55;;
60014;SDS011;45867;52.480;6.056;2022-11-20T09:01:19;27.23;;;13.55;;
60014;SDS011;45867;52.480;6.056;2022-11-20T09:03:45;30.75;;;14.23;;
60014;SDS011;45867;52.480;6.056;2022-11-20T09:06:10;29.45;;;14.43;;
60014;SDS011;45867;52.480;6.056;2022-11-20T09:08:39;29.10;;;14.43;;
60014;SDS011;45867;52.480;6.056;2022-11-20T09:11:08;35.20;;;13.73;;
60014;SDS011;45867;52.480;6.056;2022-11-20T09:13:34;31.02;;;13.95;;
60014;SDS011;45867;52.480;6.056;2022-11-20T09:16:07;29.20;;;13.15;;
60014;SDS011;45867;52.480;6.056;2022-11-20T09:18:34;24.65;;;12.77;;
60014;SDS011;45867;52.480;6.056;2022-11-20T09:21:12;27.20;;;13.20;;
60014;SDS011;45867;52.480;6.056;2022-11-20T09:23:39;23.70;;;12.25;;
60014;SDS011;45867;52.480;6.056;2022-11-20T09:26:05;24.30;;;11.73;;
60014;SDS011;45867;52.480;6.056;2022-11-20T09:28:40;22.48;;;11.38;;
60014;SDS011;45867;52.480;6.056;2022-11-20T09:31:09;21.77;;;10.90;;
60014;SDS011;45867;52.480;6.056;2022-11-20T09:33:44;24.33;;;10.48;;
60014;SDS011;45867;52.480;6.056;2022-11-20T09:36:13;24.38;;;11.07;;
60014;SDS011;45867;52.480;6.056;2022-11-20T09:38:38;23.60;;;10.93;;
60014;SDS011;45867;52.480;6.056;2022-11-20T09:41:05;22.90;;;10.55;;
60014;SDS011;45867;52.480;6.056;2022-11-20T09:43:37;23.38;;;11.85;;
60014;SDS011;45867;52.480;6.056;2022-11-20T09:51:46;23.70;;;11.38;;
60014;SDS011;45867;52.480;6.056;2022-11-20T09:54:25;21.80;;;10.82;;
60014;SDS011;45867;52.480;6.056;2022-11-20T09:56:58;24.65;;;10.60;;
60014;SDS011;45867;52.480;6.056;2022-11-20T09:59:40;21.00;;;10.13;;
60014;SDS011;45867;52.480;6.056;2022-11-20T10:04:49;22.88;;;11.02;;
60014;SDS011;45867;52.480;6.056;2022-11-20T10:07:23;20.45;;;9.63;;
60014;SDS011;45867;52.480;6.056;2022-11-20T10:09:55;20.70;;;10.32;;
60014;SDS011;45867;52.480;6.056;2022-11-20T10:18:42;26.60;;;14.13;;
60014;SDS011;45867;52.480;6.056;2022-11-20T10:30:14;24.95;;;12.63;;
60014;SDS011;45867;52.480;6.056;2022-11-20T10:32:42;25.77;;;12.55;;
60014;SDS011;45867;52.480;6.056;2022-11-20T10:37:40;25.02;;;12.95;;
60014;SDS011;45867;52.480;6.056;2022-11-20T10:43:08;28.77;;;15.02;;
60014;SDS011;45867;52.480;6.056;2022-11-20T10:45:49;33.17;;;16.92;;
60014;SDS011;45867;52.480;6.056;2022-11-20T10:48:22;29.45;;;15.70;;
60014;SDS011;45867;52.480;6.056;2022-11-20T10:51:10;33.55;;;17.48;;
60014;SDS011;45867;52.480;6.056;2022-11-20T10:54:01;33.38;;;16.27;;
60014;SDS011;45867;52.480;6.056;2022-11-20T11:01:41;30.80;;;14.60;;
60014;SDS011;45867;52.480;6.056;2022-11-20T11:04:28;25.70;;;13.05;;
60014;SDS011;45867;52.480;6.056;2022-11-20T11:07:22;26.15;;;14.35;;
60014;SDS011;45867;52.480;6.056;2022-11-20T11:09:52;16.80;;;8.90;;
60014;SDS011;45867;52.480;6.056;2022-11-20T11:12:19;24.20;;;12.82;;
60014;SDS011;45867;52.480;6.056;2022-11-20T11:14:54;25.38;;;12.60;;
60014;SDS011;45867;52.480;6.056;2022-11-20T11:17:25;25.98;;;14.40;;
60014;SDS011;45867;52.480;6.056;2022-11-20T11:19:58;24.95;;;12.68;;
60014;SDS011;45867;52.480;6.056;2022-11-20T11:22:27;25.40;;;13.25;;
60014;SDS011;45867;52.480;6.056;2022-11-20T11:24:55;24.15;;;13.20;;
60014;SDS011;45867;52.480;6.056;2022-11-20T11:27:20;24.17;;;13.25;;
60014;SDS011;45867;52.480;6.056;2022-11-20T11:29:46;24.15;;;13.38;;
60014;SDS011;45867;52.480;6.056;2022-11-20T11:32:13;44.05;;;22.42;;
60014;SDS011;45867;52.480;6.056;2022-11-20T11:34:39;28.38;;;15.20;;
60014;SDS011;45867;52.480;6.056;2022-11-20T11:37:15;29.55;;;15.88;;
60014;SDS011;45867;52.480;6.056;2022-11-20T11:39:44;22.90;;;12.02;;
60014;SDS011;45867;52.480;6.056;2022-11-20T11:42:13;24.27;;;12.88;;
60014;SDS011;45867;52.480;6.056;2022-11-20T11:44:46;24.42;;;13.40;;
60014;SDS011;45867;52.480;6.056;2022-11-20T11:47:32;23.05;;;12.35;;
60014;SDS011;45867;52.480;6.056;2022-11-20T11:52:38;27.48;;;13.50;;
60014;SDS011;45867;52.480;6.056;2022-11-20T11:55:07;23.67;;;13.32;;
60014;SDS011;45867;52.480;6.056;2022-11-20T11:57:52;26.27;;;14.27;;
60014;SDS011;45867;52.480;6.056;2022-11-20T12:00:24;22.42;;;12.43;;
60014;SDS011;45867;52.480;6.056;2022-11-20T12:03:09;26.38;;;14.25;;
60014;SDS011;45867;52.480;6.056;2022-11-20T12:05:49;24.98;;;12.75;;
60014;SDS011;45867;52.480;6.056;2022-11-20T12:08:32;26.80;;;14.57;;
60014;SDS011;45867;52.480;6.056;2022-11-20T12:11:24;24.58;;;13.65;;
60014;SDS011;45867;52.480;6.056;2022-11-20T12:14:08;32.72;;;14.48;;
60014;SDS011;45867;52.480;6.056;2022-11-20T12:16:42;24.10;;;12.85;;
60014;SDS011;45867;52.480;6.056;2022-11-20T12:19:08;18.40;;;10.60;;
60014;SDS011;45867;52.480;6.056;2022-11-20T12:26:45;25.27;;;13.65;;
60014;SDS011;45867;52.480;6.056;2022-11-20T12:29:18;27.25;;;13.95;;
60014;SDS011;45867;52.480;6.056;2022-11-20T12:32:04;27.98;;;15.07;;
60014;SDS011;45867;52.480;6.056;2022-11-20T12:35:01;35.80;;;18.00;;
60014;SDS011;45867;52.480;6.056;2022-11-20T12:41:05;32.55;;;16.70;;
60014;SDS011;45867;52.480;6.056;2022-11-20T12:43:43;27.60;;;15.13;;
60014;SDS011;45867;52.480;6.056;2022-11-20T12:54:36;25.80;;;13.73;;
60014;SDS011;45867;52.480;6.056;2022-11-20T12:57:42;24.15;;;12.98;;
60014;SDS011;45867;52.480;6.056;2022-11-20T13:00:16;24.92;;;14.00;;
60014;SDS011;45867;52.480;6.056;2022-11-20T13:05:55;22.83;;;12.88;;
60014;SDS011;45867;52.480;6.056;2022-11-20T13:19:39;19.92;;;8.50;;
60014;SDS011;45867;52.480;6.056;2022-11-20T13:22:05;20.75;;;12.50;;
60014;SDS011;45867;52.480;6.056;2022-11-20T13:24:31;22.60;;;12.18;;
60014;SDS011;45867;52.480;6.056;2022-11-20T13:29:43;20.58;;;12.45;;
60014;SDS011;45867;52.480;6.056;2022-11-20T13:32:14;24.10;;;11.90;;
60014;SDS011;45867;52.480;6.056;2022-11-20T13:34:58;23.60;;;13.20;;
60014;SDS011;45867;52.480;6.056;2022-11-20T13:37:35;20.30;;;10.80;;
60014;SDS011;45867;52.480;6.056;2022-11-20T13:40:11;24.05;;;14.55;;
60014;SDS011;45867;52.480;6.056;2022-11-20T13:42:39;26.23;;;14.57;;
60014;SDS011;45867;52.480;6.056;2022-11-20T13:45:11;30.70;;;14.32;;
60014;SDS011;45867;52.480;6.056;2022-11-20T13:47:48;22.80;;;13.73;;
60014;SDS011;45867;52.480;6.056;2022-11-20T13:50:14;24.17;;;13.70;;
60014;SDS011;45867;52.480;6.056;2022-11-20T13:55:37;24.45;;;13.73;;
60014;SDS011;45867;52.480;6.056;2022-11-20T14:01:09;19.35;;;11.43;;
60014;SDS011;45867;52.480;6.056;2022-11-20T14:03:40;22.23;;;12.68;;
60014;SDS011;45867;52.480;6.056;2022-11-20T14:06:10;21.48;;;11.98;;
60014;SDS011;45867;52.480;6.056;2022-11-20T14:08:40;19.80;;;11.98;;
60014;SDS011;45867;52.480;6.056;2022-11-20T14:11:29;21.77;;;11.63;;
60014;SDS011;45867;52.480;6.056;2022-11-20T14:14:03;24.02;;;11.98;;
60014;SDS011;45867;52.480;6.056;2022-11-20T14:16:38;25.27;;;12.40;;
60014;SDS011;45867;52.480;6.056;2022-11-20T14:21:45;22.73;;;13.20;;
60014;SDS011;45867;52.480;6.056;2022-11-20T14:24:21;22.55;;;13.50;;
60014;SDS011;45867;52.480;6.056;2022-11-20T14:26:47;24.45;;;13.30;;
60014;SDS011;45867;52.480;6.056;2022-11-20T14:29:16;25.75;;;13.32;;
60014;SDS011;45867;52.480;6.056;2022-11-20T14:31:44;26.27;;;14.27;;
60014;SDS011;45867;52.480;6.056;2022-11-20T14:34:15;24.30;;;13.38;;
60014;SDS011;45867;52.480;6.056;2022-11-20T14:36:44;22.85;;;13.18;;
60014;SDS011;45867;52.480;6.056;2022-11-20T14:39:24;22.02;;;12.15;;
60014;SDS011;45867;52.480;6.056;2022-11-20T14:41:57;25.80;;;12.48;;
60014;SDS011;45867;52.480;6.056;2022-11-20T14:44:25;22.83;;;12.23;;
60014;SDS011;45867;52.480;6.056;2022-11-20T14:46:55;21.02;;;12.32;;
60014;SDS011;45867;52.480;6.056;2022-11-20T14:49:21;20.73;;;11.38;;
60014;SDS011;45867;52.480;6.056;2022-11-20T14:51:57;19.05;;;10.95;;
60014;SDS011;45867;52.480;6.056;2022-11-20T14:54:24;19.67;;;11.52;;
60014;SDS011;45867;52.480;6.056;2022-11-20T14:56:58;21.98;;;12.57;;
60014;SDS011;45867;52.480;6.056;2022-11-20T14:59:29;23.95;;;12.35;;
60014;SDS011;45867;52.480;6.056;2022-11-20T15:01:56;20.17;;;12.57;;
60014;SDS011;45867;52.480;6.056;2022-11-20T15:04:27;22.33;;;12.70;;
60014;SDS011;45867;52.480;6.056;2022-11-20T15:06:56;21.48;;;12.05;;
60014;SDS011;45867;52.480;6.056;2022-11-20T15:09:25;20.30;;;11.57;;
60014;SDS011;45867;52.480;6.056;2022-11-20T15:11:55;22.63;;;12.65;;
60014;SDS011;45867;52.480;6.056;2022-11-20T15:14:23;20.58;;;11.77;;
60014;SDS011;45867;52.480;6.056;2022-11-20T15:16:50;26.27;;;12.77;;
60014;SDS011;45867;52.480;6.056;2022-11-20T15:19:17;23.70;;;12.98;;
60014;SDS011;45867;52.480;6.056;2022-11-20T15:21:45;22.00;;;12.63;;
60014;SDS011;45867;52.480;6.056;2022-11-20T15:24:11;24.80;;;13.43;;
60014;SDS011;45867;52.480;6.056;2022-11-20T15:26:36;26.05;;;14.07;;
60014;SDS011;45867;52.480;6.056;2022-11-20T15:29:05;31.70;;;15.38;;
60014;SDS011;45867;52.480;6.056;2022-11-20T15:31:33;37.30;;;16.02;;
60014;SDS011;45867;52.480;6.056;2022-11-20T15:33:59;26.40;;;12.93;;
60014;SDS011;45867;52.480;6.056;2022-11-20T15:36:24;26.42;;;13.95;;
60014;SDS011;45867;52.480;6.056;2022-11-20T15:38:50;24.50;;;13.07;;
60014;SDS011;45867;52.480;6.056;2022-11-20T15:41:15;32.38;;;16.60;;
60014;SDS011;45867;52.480;6.056;2022-11-20T15:43:40;31.73;;;14.90;;
60014;SDS011;45867;52.480;6.056;2022-11-20T15:46:09;26.35;;;14.48;;
60014;SDS011;45867;52.480;6.056;2022-11-20T15:48:42;32.35;;;16.92;;
60014;SDS011;45867;52.480;6.056;2022-11-20T15:53:35;39.72;;;20.15;;
60014;SDS011;45867;52.480;6.056;2022-11-20T15:56:01;34.08;;;17.38;;
60014;SDS011;45867;52.480;6.056;2022-11-20T15:58:27;41.30;;;23.48;;